Time;durP1;ratioP1;P1;durP2;ratioP2;P2;SDS_P1;SDS_P2;PMS_P1;PMS_P2;Temp;Humidity;BMP_temperature;BMP_pressure;BME280_temperature;BME280_humidity;BME280_pressure;Samples;Min_cycle;Max_cycle;Signal;HPM_P1;HPM_P2
2022/04/03 00:00:16;;;;;;;3.00;1.85;;;;;;;6.44;55.32;101614.44;4972419;28;20038;-83
2022/04/03 00:02:41;;;;;;;3.03;1.80;;;;;;;6.45;55.61;101611.75;4986940;28;20034;-83
2022/04/03 00:05:08;;;;;;;2.17;1.75;;;;;;;6.43;55.18;101610.94;4980560;28;20405;-83
2022/04/03 00:07:33;;;;;;;3.83;1.73;;;;;;;6.48;55.50;101610.81;4979988;28;20114;-83
2022/04/03 00:10:00;;;;;;;2.55;1.63;;;;;;;6.47;55.06;101609.09;4984737;28;20030;-83
2022/04/03 00:12:25;;;;;;;2.35;1.65;;;;;;;6.46;54.78;101615.22;4973779;28;20030;-83
2022/04/03 00:14:51;;;;;;;2.22;2.03;;;;;;;6.52;54.67;101615.88;4988272;28;20054;-83
2022/04/03 00:17:17;;;;;;;3.15;2.03;;;;;;;6.62;54.59;101618.22;4973143;28;20046;-84
2022/04/03 00:19:43;;;;;;;2.47;1.70;;;;;;;6.62;54.44;101613.00;4976425;28;20406;-83
2022/04/03 00:22:10;;;;;;;2.10;1.60;;;;;;;6.59;54.43;101619.13;4988784;28;20035;-83
2022/04/03 00:24:36;;;;;;;2.63;1.85;;;;;;;6.52;54.43;101613.28;4984687;28;20039;-83
2022/04/03 00:27:01;;;;;;;3.17;1.85;;;;;;;6.47;54.16;101615.16;4984404;28;20022;-83
2022/04/03 00:29:27;;;;;;;3.17;1.80;;;;;;;6.41;54.37;101614.50;4992291;28;20034;-83
2022/04/03 00:31:53;;;;;;;2.67;1.85;;;;;;;6.27;54.52;101623.59;4977577;28;20027;-83
2022/04/03 00:34:18;;;;;;;2.85;1.95;;;;;;;6.24;54.79;101622.84;4986686;28;20041;-84
2022/04/03 00:36:44;;;;;;;1.80;1.40;;;;;;;6.25;54.88;101614.97;4989271;28;20026;-85
2022/04/03 00:39:09;;;;;;;1.98;1.20;;;;;;;6.24;55.18;101622.84;4988958;28;20054;-84
2022/04/03 00:41:34;;;;;;;2.95;1.40;;;;;;;6.22;55.20;101611.59;4977190;28;20027;-84
2022/04/03 00:44:00;;;;;;;3.63;2.05;;;;;;;6.21;54.69;101615.13;4994323;28;20030;-84
2022/04/03 00:46:27;;;;;;;2.80;1.70;;;;;;;6.20;54.77;101621.22;4991884;28;20026;-84
2022/04/03 00:48:53;;;;;;;4.95;1.92;;;;;;;6.09;54.65;101621.56;4985058;28;20034;-84
2022/04/03 00:51:20;;;;;;;2.40;1.65;;;;;;;6.02;55.31;101622.63;4994160;28;20034;-84
2022/04/03 00:53:46;;;;;;;2.38;1.45;;;;;;;6.01;54.89;101611.34;4979258;28;20469;-85
2022/04/03 00:56:12;;;;;;;3.63;1.80;;;;;;;6.04;55.02;101610.41;4977305;28;20041;-85
2022/04/03 00:58:38;;;;;;;2.30;1.70;;;;;;;6.02;54.95;101610.44;4977102;28;20041;-84
2022/04/03 01:01:04;;;;;;;2.47;1.80;;;;;;;6.00;54.90;101608.78;4978519;28;20026;-84
2022/04/03 01:03:29;;;;;;;2.33;1.48;;;;;;;6.01;54.61;101618.34;4993879;28;20026;-84
2022/04/03 01:05:56;;;;;;;3.00;1.50;;;;;;;5.95;54.95;101611.53;4994949;28;20081;-84
2022/04/03 01:08:24;;;;;;;2.00;1.35;;;;;;;5.94;54.61;101612.41;4991126;28;20026;-84
2022/04/03 01:10:49;;;;;;;2.05;1.88;;;;;;;5.89;54.77;101611.69;4990971;28;20469;-84
2022/04/03 01:13:15;;;;;;;2.47;1.50;;;;;;;5.86;55.26;101610.00;4982180;28;20031;-84
2022/04/03 01:15:41;;;;;;;2.38;1.58;;;;;;;5.83;55.06;101617.09;4987126;28;20023;-84
2022/04/03 01:18:06;;;;;;;4.70;1.80;;;;;;;5.78;55.06;101624.16;4988553;28;20030;-84
2022/04/03 01:20:31;;;;;;;2.10;1.55;;;;;;;5.69;55.10;101610.50;4994347;28;20034;-84
2022/04/03 01:22:57;;;;;;;3.83;1.52;;;;;;;5.65;55.62;101615.88;4984990;28;20022;-84
2022/04/03 01:25:22;;;;;;;3.47;1.83;;;;;;;5.63;55.30;101620.22;4983846;28;20058;-84
2022/04/03 01:27:47;;;;;;;3.67;1.70;;;;;;;5.59;55.13;101618.63;4986061;28;20037;-84
2022/04/03 01:30:13;;;;;;;4.85;2.20;;;;;;;5.53;55.71;101615.31;4988066;28;20479;-84
2022/04/03 01:32:40;;;;;;;3.08;1.80;;;;;;;5.57;55.70;101621.28;4991203;28;20200;-83
2022/04/03 01:35:05;;;;;;;4.32;2.47;;;;;;;5.54;55.77;101626.56;4994705;28;20054;-83
2022/04/03 01:37:31;;;;;;;3.33;2.40;;;;;;;5.49;55.74;101628.44;4984193;28;20026;-82
2022/04/03 01:39:56;;;;;;;2.88;2.10;;;;;;;5.46;55.38;101621.56;4975534;28;20474;-83
2022/04/03 01:42:21;;;;;;;3.40;2.20;;;;;;;5.47;55.75;101625.88;4991652;28;20031;-83
2022/04/03 01:44:47;;;;;;;4.30;2.15;;;;;;;5.47;55.73;101620.69;4975032;28;20474;-83
2022/04/03 01:47:12;;;;;;;2.42;1.88;;;;;;;5.44;55.61;101620.75;4986816;28;20129;-83
2022/04/03 01:49:38;;;;;;;3.20;1.80;;;;;;;5.45;55.97;101617.25;4992807;28;20053;-83
2022/04/03 01:52:04;;;;;;;2.88;2.22;;;;;;;5.43;55.96;101626.00;4993148;28;20041;-83
2022/04/03 01:54:29;;;;;;;2.75;1.83;;;;;;;5.43;56.22;101619.06;4990526;28;20034;-83
2022/04/03 01:56:55;;;;;;;3.75;2.30;;;;;;;5.41;55.84;101623.47;4983006;28;20030;-82
2022/04/03 01:59:21;;;;;;;3.25;2.10;;;;;;;5.40;56.40;101616.53;4992102;28;20084;-83
2022/04/03 02:01:46;;;;;;;3.75;2.58;;;;;;;5.41;56.27;101620.84;4981717;28;20473;-83
2022/04/03 02:04:12;;;;;;;4.03;2.90;;;;;;;5.39;56.81;101622.66;4985433;28;20039;-83
2022/04/03 02:06:38;;;;;;;4.32;2.90;;;;;;;5.43;56.22;101623.38;4988588;28;20031;-83
2022/04/03 02:09:04;;;;;;;3.28;2.30;;;;;;;5.37;56.58;101619.19;4990811;28;20078;-83
2022/04/03 02:11:30;;;;;;;5.00;2.55;;;;;;;5.41;56.33;101631.28;4985968;28;20031;-82
2022/04/03 02:13:55;;;;;;;4.13;2.80;;;;;;;5.43;56.56;101618.19;4976015;28;20393;-83
2022/04/03 02:16:22;;;;;;;4.55;2.25;;;;;;;5.38;56.52;101627.88;4988301;28;20473;-83
2022/04/03 02:18:48;;;;;;;3.80;2.20;;;;;;;5.36;56.53;101617.50;4991436;28;20033;-83
2022/04/03 02:21:14;;;;;;;3.60;2.47;;;;;;;5.26;56.26;101621.25;4972695;28;20045;-83
2022/04/03 02:23:39;;;;;;;3.80;2.65;;;;;;;5.29;56.45;101627.25;4975956;28;20114;-83
2022/04/03 02:26:05;;;;;;;4.45;3.05;;;;;;;5.31;56.51;101627.19;4993534;28;20026;-83
2022/04/03 02:28:30;;;;;;;4.18;2.75;;;;;;;5.30;56.49;101630.69;4989948;28;20027;-83
2022/04/03 02:30:56;;;;;;;4.00;2.90;;;;;;;5.32;56.56;101631.50;4993175;28;20050;-83
2022/04/03 02:33:21;;;;;;;5.75;3.13;;;;;;;5.32;55.86;101626.28;4984441;28;20023;-83
2022/04/03 02:35:46;;;;;;;5.80;3.25;;;;;;;5.27;56.55;101626.44;4979193;28;20038;-82
2022/04/03 02:38:12;;;;;;;3.25;2.75;;;;;;;5.27;56.05;101626.44;4978983;28;20050;-83
2022/04/03 02:40:37;;;;;;;5.18;3.13;;;;;;;5.28;56.59;101627.28;4986340;28;20034;-83
2022/04/03 02:43:02;;;;;;;3.85;2.67;;;;;;;5.23;56.34;101622.16;4977695;28;20465;-83
2022/04/03 02:45:28;;;;;;;4.78;2.63;;;;;;;5.21;57.40;101623.94;4991569;28;20484;-83
2022/04/03 02:47:55;;;;;;;4.22;2.67;;;;;;;5.29;56.92;101627.25;4992768;28;20030;-82
2022/04/03 02:50:24;;;;;;;2.63;2.17;;;;;;;5.24;57.14;101626.50;4991631;28;20027;-83
2022/04/03 02:52:50;;;;;;;5.03;2.30;;;;;;;5.21;57.32;101628.31;4984101;28;20055;-83
2022/04/03 02:55:16;;;;;;;4.18;2.50;;;;;;;5.22;57.09;101630.03;4988986;28;20035;-83
2022/04/03 02:57:42;;;;;;;8.43;3.50;;;;;;;5.11;57.11;101623.34;4984242;28;20018;-83
2022/04/03 03:00:08;;;;;;;6.38;3.92;;;;;;;5.12;57.03;101624.22;4975994;28;20420;-83
2022/04/03 03:02:33;;;;;;;3.85;3.15;;;;;;;5.20;56.68;101631.84;4983439;28;20084;-83
2022/04/03 03:04:59;;;;;;;6.57;3.72;;;;;;;5.18;56.60;101618.00;4981249;28;20034;-83
2022/04/03 03:07:34;;;;;;;2.90;2.53;;;;;;;5.18;57.13;101631.03;4973022;28;20085;-83
2022/04/03 03:10:00;;;;;;;4.82;3.35;;;;;;;5.14;57.01;101628.47;4977498;28;20216;-83
2022/04/03 03:12:25;;;;;;;5.40;3.33;;;;;;;5.11;56.61;101628.53;4972453;28;20114;-83
2022/04/03 03:14:50;;;;;;;5.20;3.38;;;;;;;5.06;56.79;101627.81;4978409;28;20117;-83
2022/04/03 03:17:16;;;;;;;3.28;2.67;;;;;;;5.07;56.57;101626.91;4991494;28;20109;-83
2022/04/03 03:19:41;;;;;;;4.72;2.92;;;;;;;5.03;56.86;101625.28;4985779;28;21477;-83
2022/04/03 03:22:07;;;;;;;6.47;2.92;;;;;;;4.98;57.03;101624.56;4988326;28;20105;-82
2022/04/03 03:24:33;;;;;;;7.85;2.65;;;;;;;4.96;56.24;101629.81;4983804;28;20450;-83
2022/04/03 03:26:58;;;;;;;4.53;3.05;;;;;;;4.93;56.69;101635.06;4987715;28;20033;-83
2022/04/03 03:29:23;;;;;;;3.97;3.25;;;;;;;4.94;56.52;101631.59;4992013;28;20366;-83
2022/04/03 03:31:49;;;;;;;5.20;2.88;;;;;;;4.94;56.25;101634.19;4983856;28;20027;-83
2022/04/03 03:34:14;;;;;;;4.90;3.20;;;;;;;4.91;56.95;101621.25;4990939;28;20022;-82
2022/04/03 03:36:39;;;;;;;6.38;3.50;;;;;;;4.92;56.27;101619.50;4985177;28;20121;-83
2022/04/03 03:39:05;;;;;;;5.18;3.67;;;;;;;4.92;56.86;101622.97;4990467;28;20070;-83
2022/04/03 03:41:30;;;;;;;6.38;4.07;;;;;;;4.87;56.82;101623.97;4973628;28;20033;-83
2022/04/03 03:43:55;;;;;;;7.53;3.38;;;;;;;4.82;56.34;101631.03;4992466;28;20084;-83
2022/04/03 03:46:21;;;;;;;5.88;3.70;;;;;;;4.71;56.79;101619.13;4992907;28;20080;-83
2022/04/03 03:48:46;;;;;;;8.35;3.88;;;;;;;4.69;56.86;101618.31;4989659;28;20034;-83
2022/04/03 03:51:11;;;;;;;6.75;3.35;;;;;;;4.63;57.45;101628.88;4990913;28;20088;-83
2022/04/03 03:53:37;;;;;;;6.30;3.40;;;;;;;4.56;56.42;101616.88;4990884;28;20165;-83
2022/04/03 03:56:04;;;;;;;7.13;3.83;;;;;;;4.60;57.54;101625.47;4974394;28;20041;-83
2022/04/03 03:58:30;;;;;;;8.13;4.22;;;;;;;4.57;57.34;101622.06;4979178;28;20042;-83
2022/04/03 04:00:55;;;;;;;6.70;3.83;;;;;;;4.60;56.67;101621.16;4985610;28;20035;-83
2022/04/03 04:03:21;;;;;;;5.28;4.13;;;;;;;4.58;56.60;101625.50;4994545;28;20033;-83
2022/04/03 04:05:46;;;;;;;10.25;5.25;;;;;;;4.51;56.85;101622.22;4987113;28;20393;-83
2022/04/03 04:08:11;;;;;;;7.13;4.30;;;;;;;4.46;57.67;101623.19;4995720;28;20030;-83
2022/04/03 04:10:37;;;;;;;8.38;4.55;;;;;;;4.46;56.91;101629.25;4985492;28;20076;-83
2022/04/03 04:13:03;;;;;;;8.63;4.90;;;;;;;4.45;57.22;101619.75;4989526;28;20022;-83
2022/04/03 04:15:28;;;;;;;9.85;5.22;;;;;;;4.48;56.93;101617.09;4999333;28;20034;-83
2022/04/03 04:17:54;;;;;;;5.70;4.28;;;;;;;4.46;57.25;101631.00;4984088;28;20110;-83
2022/04/03 04:20:21;;;;;;;6.70;4.18;;;;;;;4.37;56.83;101617.31;4999176;28;20041;-83
2022/04/03 04:22:48;;;;;;;6.53;3.65;;;;;;;4.34;57.40;101620.00;4994724;28;20061;-82
2022/04/03 04:25:15;;;;;;;6.72;4.10;;;;;;;4.35;56.52;101616.50;4992600;28;20031;-83
2022/04/03 04:27:42;;;;;;;5.43;3.95;;;;;;;4.31;57.47;101630.47;4995502;28;20038;-83
2022/04/03 04:30:08;;;;;;;7.53;3.95;;;;;;;4.23;57.45;101624.59;4980895;28;20069;-83
2022/04/03 04:32:33;;;;;;;4.82;3.47;;;;;;;4.24;57.94;101631.47;4980067;28;20063;-83
2022/04/03 04:34:59;;;;;;;5.45;3.58;;;;;;;4.26;57.02;101631.44;4998051;28;20226;-83
2022/04/03 04:37:25;;;;;;;7.22;3.78;;;;;;;4.17;57.27;101627.31;4996628;28;20026;-83
2022/04/03 04:39:51;;;;;;;4.30;3.00;;;;;;;4.18;57.62;101636.81;4993999;28;20502;-83
2022/04/03 04:42:16;;;;;;;5.55;3.67;;;;;;;4.17;57.90;101641.16;4995963;28;20026;-83
2022/04/03 04:44:42;;;;;;;5.28;2.53;;;;;;;4.19;57.21;101638.53;4989882;28;20377;-83
2022/04/03 04:47:08;;;;;;;3.33;2.72;;;;;;;4.26;57.61;101641.84;4986120;28;20412;-83
2022/04/03 04:49:34;;;;;;;5.95;2.95;;;;;;;4.24;57.04;101639.28;4991082;28;20114;-83
2022/04/03 04:51:59;;;;;;;4.97;2.97;;;;;;;4.22;56.99;101641.06;4987462;28;20026;-83
2022/04/03 04:54:26;;;;;;;4.38;3.05;;;;;;;4.23;56.91;101641.94;4994938;28;20041;-83
2022/04/03 04:56:52;;;;;;;4.22;2.92;;;;;;;4.21;57.09;101636.75;4996081;28;20118;-82
2022/04/03 04:59:17;;;;;;;4.18;2.80;;;;;;;4.24;57.44;101644.47;4979600;28;20110;-83
2022/04/03 05:01:42;;;;;;;5.72;2.72;;;;;;;4.22;56.61;101638.47;4981736;28;20031;-83
2022/04/03 05:04:08;;;;;;;4.28;2.92;;;;;;;4.20;56.96;101642.00;4978974;28;20023;-83
2022/04/03 05:06:34;;;;;;;5.57;3.70;;;;;;;4.20;57.02;101649.78;4990509;28;20041;-83
2022/04/03 05:09:01;;;;;;;6.38;3.10;;;;;;;4.22;57.07;101643.66;4978692;28;20511;-83
2022/04/03 05:11:27;;;;;;;5.47;3.05;;;;;;;4.16;57.36;101646.41;4980927;28;20097;-83
2022/04/03 05:13:53;;;;;;;5.30;3.20;;;;;;;4.22;57.38;101654.06;4977218;28;20034;-83
2022/04/03 05:16:19;;;;;;;4.80;3.28;;;;;;;4.22;56.87;101656.66;4979344;28;20105;-83
2022/04/03 05:18:45;;;;;;;5.55;3.10;;;;;;;4.22;56.70;101655.81;4987390;28;20053;-83
2022/04/03 05:21:10;;;;;;;4.30;3.50;;;;;;;4.17;56.49;101658.50;4987222;28;20041;-83
2022/04/03 05:23:38;;;;;;;6.13;3.78;;;;;;;4.17;56.82;101656.75;4992968;28;20026;-83
2022/04/03 05:26:04;;;;;;;6.82;3.40;;;;;;;4.23;56.79;101654.94;4992217;28;20030;-83
2022/04/03 05:28:30;;;;;;;8.05;3.30;;;;;;;4.25;57.07;101663.56;4980360;28;20031;-83
2022/04/03 05:30:55;;;;;;;5.97;3.70;;;;;;;4.22;57.11;101650.59;4985278;28;20074;-83
2022/04/03 05:33:20;;;;;;;6.65;4.10;;;;;;;4.19;57.07;101659.34;4988140;28;20030;-83
2022/04/03 05:35:46;;;;;;;5.47;4.20;;;;;;;4.17;57.09;101654.16;4989283;28;20095;-82
2022/04/03 05:38:11;;;;;;;5.47;4.18;;;;;;;4.16;56.73;101646.41;4990624;28;20023;-83
2022/04/03 05:40:36;;;;;;;6.25;4.03;;;;;;;4.18;57.21;101655.00;4985972;28;20043;-83
2022/04/03 05:43:02;;;;;;;6.72;4.28;;;;;;;4.15;56.42;101655.94;4994022;28;20022;-83
2022/04/03 05:45:27;;;;;;;7.97;4.65;;;;;;;4.12;57.01;101662.94;4983471;28;20042;-83
2022/04/03 05:47:53;;;;;;;11.52;5.57;;;;;;;4.06;57.21;101660.47;4974966;28;20363;-83
2022/04/03 05:50:19;;;;;;;8.32;6.10;;;;;;;4.07;57.14;101669.97;4989523;28;20496;-83
2022/04/03 05:52:50;;;;;;;10.20;6.15;;;;;;;4.16;56.73;101664.59;4982548;28;20121;-84
2022/04/03 05:55:18;;;;;;;9.68;5.45;;;;;;;4.21;56.92;101665.38;4979030;28;20062;-85
2022/04/03 05:57:45;;;;;;;7.22;4.63;;;;;;;4.20;57.15;101662.78;4982699;28;20085;-84
2022/04/03 06:00:12;;;;;;;9.70;4.90;;;;;;;4.23;56.88;101663.59;4973703;28;20039;-85
2022/04/03 06:02:59;;;;;;;6.55;3.60;;;;;;;4.43;56.60;101667.50;4985415;28;20477;-84
2022/04/03 06:05:29;;;;;;;7.28;4.28;;;;;;;4.29;56.80;101668.66;4975927;28;20031;-84
2022/04/03 06:07:55;;;;;;;6.07;4.13;;;;;;;4.30;57.11;101675.53;4978847;28;20022;-84
2022/04/03 06:10:23;;;;;;;7.45;4.35;;;;;;;4.31;57.13;101685.06;4993186;28;20101;-84
2022/04/03 06:13:06;;;;;;;5.15;3.85;;;;;;;4.51;57.14;101686.38;4989562;28;20027;-84
2022/04/03 06:15:49;;;;;;;8.05;4.00;;;;;;;4.59;56.76;101686.22;4983324;28;20065;-84
2022/04/03 06:18:16;;;;;;;5.18;3.83;;;;;;;4.48;57.03;101687.31;4991027;28;20040;-85
2022/04/03 06:20:42;;;;;;;6.35;4.30;;;;;;;4.48;56.98;101684.72;4994180;28;20034;-84
2022/04/03 06:23:21;;;;;;;6.95;4.20;;;;;;;4.70;56.64;101690.28;4988567;28;20084;-84
2022/04/03 06:25:49;;;;;;;5.88;4.00;;;;;;;4.53;57.01;101687.22;4992165;28;20088;-85
2022/04/03 06:28:15;;;;;;;5.57;4.03;;;;;;;4.58;57.38;101690.53;4981421;28;20031;-85
2022/04/03 06:30:40;;;;;;;8.00;4.63;;;;;;;4.64;57.00;101692.16;4989191;28;20038;-84
2022/04/03 06:33:06;;;;;;;5.15;4.40;;;;;;;4.63;57.07;101695.66;4986529;28;20129;-85
2022/04/03 06:35:31;;;;;;;7.32;4.13;;;;;;;4.67;57.02;101697.31;4979104;28;20432;-84
2022/04/03 06:37:57;;;;;;;5.85;4.13;;;;;;;4.69;57.26;101696.38;4986942;28;20030;-84
2022/04/03 06:40:23;;;;;;;6.32;4.82;;;;;;;4.74;57.47;101702.34;4989756;28;20034;-84
2022/04/03 06:42:50;;;;;;;5.55;4.50;;;;;;;4.82;57.56;101699.56;4991336;28;20060;-84
2022/04/03 06:45:16;;;;;;;8.52;5.20;;;;;;;4.77;57.20;101698.78;4974221;28;20069;-85
2022/04/03 06:47:41;;;;;;;8.85;5.68;;;;;;;4.93;56.84;101694.09;4977548;28;20055;-85
2022/04/03 06:50:08;;;;;;;8.52;5.90;;;;;;;5.01;57.56;101699.13;4991295;28;20026;-84
2022/04/03 06:52:34;;;;;;;9.15;5.03;;;;;;;5.10;57.34;101693.69;4980739;28;20134;-85
2022/04/03 06:54:59;;;;;;;7.22;5.07;;;;;;;5.18;56.80;101696.09;4975375;28;20027;-85
2022/04/03 06:57:25;;;;;;;8.55;5.55;;;;;;;5.64;57.84;101692.31;4983398;28;20030;-85
2022/04/03 06:59:50;;;;;;;9.23;5.72;;;;;;;6.75;56.92;101696.06;4987264;28;20031;-85
2022/04/03 07:02:16;;;;;;;11.50;6.95;;;;;;;7.78;54.52;101707.47;4980324;28;20031;-85
2022/04/03 07:04:41;;;;;;;11.32;6.47;;;;;;;8.37;52.80;101705.31;4975487;28;20054;-86
2022/04/03 07:07:08;;;;;;;7.75;5.55;;;;;;;8.56;51.87;101703.72;4975149;28;20069;-84
2022/04/03 07:09:38;;;;;;;6.80;5.10;;;;;;;9.27;50.57;101701.75;4986784;28;20755;-84
2022/04/03 07:12:04;;;;;;;8.63;5.22;;;;;;;9.23;49.64;101696.72;4985194;28;20034;-84
2022/04/03 07:14:29;;;;;;;7.35;4.65;;;;;;;9.27;48.28;101698.28;4968814;28;20023;-84
2022/04/03 07:16:54;;;;;;;9.68;5.47;;;;;;;9.19;48.60;101695.13;4973373;28;20037;-85
2022/04/03 07:19:20;;;;;;;5.97;4.95;;;;;;;9.44;48.76;101701.06;4990173;28;20113;-83
2022/04/03 07:21:46;;;;;;;7.32;5.32;;;;;;;9.64;47.68;101707.22;4982468;28;20042;-84
2022/04/03 07:24:11;;;;;;;6.88;5.40;;;;;;;9.83;47.83;101700.22;4978395;28;20023;-86
2022/04/03 07:26:36;;;;;;;9.40;5.70;;;;;;;10.17;46.96;101703.09;4991997;28;20451;-84
2022/04/03 07:29:02;;;;;;;8.00;5.40;;;;;;;10.22;45.86;101701.97;4991967;28;20803;-83
2022/04/03 07:31:28;;;;;;;14.88;5.50;;;;;;;10.27;46.33;101699.16;4992843;28;20042;-84
2022/04/03 07:33:55;;;;;;;7.60;5.97;;;;;;;10.46;46.56;101701.81;4983835;28;20023;-84
2022/04/03 07:36:20;;;;;;;13.13;5.35;;;;;;;10.59;45.91;101702.94;4973903;28;20030;-83
2022/04/03 07:38:46;;;;;;;8.60;5.80;;;;;;;10.82;45.85;101711.47;4984060;28;20022;-83
2022/04/03 07:41:11;;;;;;;11.82;6.40;;;;;;;11.17;45.20;101706.28;4973408;28;20027;-84
2022/04/03 07:43:36;;;;;;;8.88;5.90;;;;;;;11.79;44.25;101707.50;4978521;28;20030;-83
2022/04/03 07:46:02;;;;;;;10.32;6.13;;;;;;;12.22;43.93;101710.53;4991373;28;20465;-83
2022/04/03 07:48:27;;;;;;;10.52;5.82;;;;;;;12.62;43.02;101697.78;4987306;28;20027;-86
2022/04/03 07:50:53;;;;;;;5.97;5.00;;;;;;;13.13;42.36;101709.88;4973501;28;20026;-83
2022/04/03 07:53:19;;;;;;;7.78;4.95;;;;;;;13.58;41.31;101708.13;4974062;28;20045;-83
2022/04/03 07:55:44;;;;;;;8.85;5.55;;;;;;;13.64;40.80;101710.41;4976221;28;20477;-81
2022/04/03 07:58:10;;;;;;;6.78;4.72;;;;;;;13.99;39.78;101708.25;5009380;28;20034;-81
2022/04/03 08:00:35;;;;;;;19.95;5.50;;;;;;;14.28;39.62;101709.09;5012377;28;20117;-81
2022/04/03 08:03:01;;;;;;;6.55;4.82;;;;;;;14.81;39.21;101711.94;4978744;28;20593;-82
2022/04/03 08:05:26;;;;;;;10.30;5.68;;;;;;;15.79;37.51;101712.44;4992708;28;20027;-83
2022/04/03 08:07:52;;;;;;;9.23;5.68;;;;;;;16.51;36.54;101716.25;4985975;28;20412;-83
2022/04/03 08:10:20;;;;;;;7.10;5.53;;;;;;;17.41;35.09;101714.88;4974030;28;20034;-83
2022/04/03 08:12:48;;;;;;;7.75;5.28;;;;;;;18.12;34.21;101709.44;4978775;28;20022;-84
2022/04/03 08:15:15;;;;;;;8.38;5.80;;;;;;;18.77;33.14;101702.44;4993419;28;20284;-84
2022/04/03 08:17:41;;;;;;;9.18;5.20;;;;;;;19.32;32.35;101707.66;4992303;28;20031;-84
2022/04/03 08:20:08;;;;;;;8.38;4.97;;;;;;;19.66;31.13;101704.78;4991099;28;20081;-84
2022/04/03 08:22:35;;;;;;;7.47;5.20;;;;;;;20.12;31.19;101705.31;4993163;28;20025;-85
2022/04/03 08:25:01;;;;;;;9.68;4.93;;;;;;;20.59;30.33;101705.59;4990358;28;20031;-85
2022/04/03 08:27:42;;;;;;;6.75;4.45;;;;;;;20.88;29.93;101712.81;4987872;28;20080;-85
2022/04/03 08:30:10;;;;;;;6.90;4.47;;;;;;;21.52;29.25;101706.03;4973908;28;20027;-85
2022/04/03 08:32:35;;;;;;;8.25;4.50;;;;;;;21.98;28.84;101702.50;4982129;28;20158;-85
2022/04/03 08:35:00;;;;;;;5.93;4.10;;;;;;;22.48;28.04;101703.13;4984162;28;20088;-86
2022/04/03 08:37:28;;;;;;;5.38;4.25;;;;;;;22.84;28.40;101698.59;4991316;28;20030;-87
2022/04/03 08:39:53;;;;;;;9.43;5.38;;;;;;;23.00;27.19;101705.13;4978050;28;20034;-86
2022/04/03 08:42:19;;;;;;;5.75;4.82;;;;;;;22.98;27.70;101694.56;4973506;28;20045;-86
2022/04/03 08:44:44;;;;;;;5.47;4.25;;;;;;;23.35;27.39;101697.06;4981498;28;20117;-86
2022/04/03 08:47:15;;;;;;;7.30;4.53;;;;;;;23.75;26.59;101700.13;4975383;28;20736;-85
2022/04/03 08:49:41;;;;;;;;;;;;;;;24.18;26.45;101697.53;4979016;28;20117;-86
2022/04/03 08:52:09;;;;;;;9.25;4.93;;;;;;;24.08;26.21;101694.97;4996113;28;19949;-85
2022/04/03 08:54:36;;;;;;;5.03;3.88;;;;;;;24.52;26.31;101700.16;4992260;28;20041;-86
2022/04/03 08:57:02;;;;;;;3.72;1.88;;;;;;;24.81;25.54;101693.50;4986850;28;20022;-86
2022/04/03 08:59:27;;;;;;;5.40;2.10;;;;;;;24.80;24.61;101689.97;4983132;28;20487;-87
2022/04/03 09:01:53;;;;;;;3.28;1.83;;;;;;;25.11;24.88;101692.81;4993158;28;20548;-87
2022/04/03 09:04:20;;;;;;;1.60;0.93;;;;;;;25.40;23.97;101687.97;4978334;28;20093;-86
2022/04/03 09:06:57;;;;;;;3.05;1.25;;;;;;;25.05;23.23;101690.81;4981544;28;20404;-87
2022/04/03 09:09:24;;;;;;;3.72;1.10;;;;;;;25.33;23.98;101693.16;4977764;28;20105;-86
2022/04/03 09:12:08;;;;;;;1.02;0.80;;;;;;;25.42;23.95;101688.63;4986633;28;20022;-85
2022/04/03 09:14:34;;;;;;;2.72;1.38;;;;;;;25.69;24.08;101684.69;4994250;28;20607;-85
2022/04/03 09:17:00;;;;;;;6.07;1.60;;;;;;;25.44;23.79;101686.63;4987525;28;20035;-86
2022/04/03 09:19:33;;;;;;;1.58;1.10;;;;;;;25.71;23.82;101679.97;4976871;28;20052;-85
2022/04/03 09:21:59;;;;;;;2.70;1.20;;;;;;;25.70;23.74;101684.53;4991399;28;20037;-86
2022/04/03 09:24:25;;;;;;;1.55;0.95;;;;;;;25.67;23.33;101682.19;4995473;28;20416;-86
2022/04/03 09:27:08;;;;;;;1.88;1.10;;;;;;;25.35;22.91;101684.94;4994045;28;20030;-86
2022/04/03 09:29:33;;;;;;;4.50;1.58;;;;;;;25.51;23.60;101677.69;4994987;28;20038;-84
2022/04/03 09:32:01;;;;;;;6.47;1.30;;;;;;;25.58;23.33;101677.84;4987229;28;20026;-84
2022/04/03 09:34:28;;;;;;;2.30;1.33;;;;;;;25.09;23.58;101676.03;4990871;28;20030;-86
2022/04/03 09:37:01;;;;;;;5.53;1.17;;;;;;;25.51;23.40;101666.94;4990721;28;20034;-85
2022/04/03 09:39:30;;;;;;;2.35;1.48;;;;;;;25.80;23.40;101672.72;4985260;28;20052;-84
2022/04/03 09:41:57;;;;;;;3.22;1.35;;;;;;;25.77;23.64;101673.06;4988819;28;20553;-85
2022/04/03 09:44:37;;;;;;;2.17;0.98;;;;;;;26.15;23.01;101675.97;4987107;28;20038;-85
2022/04/03 09:47:20;;;;;;;3.20;1.23;;;;;;;26.42;22.77;101671.94;4991833;28;20015;-85
2022/04/03 09:49:52;;;;;;;2.78;1.73;;;;;;;26.56;23.45;101668.50;4992485;28;20595;-83
2022/04/03 09:52:38;;;;;;;6.65;3.50;;;;;;;26.65;22.22;101667.44;4985476;28;20034;-85
2022/04/03 09:55:13;;;;;;;5.30;2.35;;;;;;;26.32;23.32;101666.78;4981792;28;20366;-84
2022/04/03 09:57:38;;;;;;;2.92;2.20;;;;;;;25.36;23.57;101665.97;4985231;28;20032;-84
2022/04/03 10:00:05;;;;;;;3.13;2.13;;;;;;;25.76;23.90;101660.63;4990965;28;20038;-84
2022/04/03 10:02:32;;;;;;;3.88;2.03;;;;;;;26.60;23.13;101674.38;4984941;28;20033;-84
2022/04/03 10:04:58;;;;;;;4.07;2.70;;;;;;;26.56;22.64;101662.25;4985475;28;20053;-85
2022/04/03 10:07:24;;;;;;;4.40;2.80;;;;;;;26.75;22.46;101656.41;4988416;28;20433;-84
2022/04/03 10:09:51;;;;;;;4.95;2.97;;;;;;;26.50;22.71;101653.88;4986240;28;20051;-84
2022/04/03 10:12:22;;;;;;;5.60;2.90;;;;;;;26.55;22.67;101658.72;4980794;28;20070;-85
2022/04/03 10:14:49;;;;;;;4.05;3.28;;;;;;;26.48;22.53;101650.53;4982884;28;20030;-84
2022/04/03 10:17:16;;;;;;;4.53;2.65;;;;;;;26.65;22.71;101648.56;4977944;28;20122;-85
2022/04/03 10:19:42;;;;;;;6.47;3.28;;;;;;;26.85;22.11;101648.09;4980948;28;20042;-84
2022/04/03 10:22:16;;;;;;;4.65;3.25;;;;;;;26.78;22.29;101644.44;4987582;28;20050;-86
2022/04/03 10:24:44;;;;;;;5.53;3.30;;;;;;;26.27;23.09;101655.72;4981198;28;20101;-85
2022/04/03 10:27:19;;;;;;;5.07;3.47;;;;;;;26.56;22.58;101651.47;4991935;28;20489;-86
2022/04/03 10:29:47;;;;;;;4.47;3.72;;;;;;;26.38;22.96;101643.69;4977671;28;20045;-86
2022/04/03 10:32:56;;;;;;;4.35;2.85;;;;;;;26.39;22.46;101640.81;4979353;28;20061;-87
2022/04/03 10:35:21;;;;;;;5.60;2.90;;;;;;;26.07;23.05;101641.88;4968568;28;20031;-87
2022/04/03 10:38:05;;;;;;;5.35;2.95;;;;;;;26.51;22.81;101639.38;4977028;28;20512;-86
2022/04/03 10:40:33;;;;;;;4.30;2.65;;;;;;;26.98;21.72;101639.41;4982858;28;20042;-87
2022/04/03 10:43:05;;;;;;;4.75;2.90;;;;;;;26.76;21.64;101627.59;4978750;28;20033;-87
2022/04/03 10:45:46;;;;;;;2.90;2.47;;;;;;;26.46;21.30;101635.56;4983475;28;20072;-86
2022/04/03 10:48:23;;;;;;;2.58;2.28;;;;;;;26.26;21.20;101627.97;4977511;28;20034;-85
2022/04/03 10:50:54;;;;;;;4.50;2.67;;;;;;;26.55;21.03;101630.97;4978834;28;20058;-84
2022/04/03 10:53:27;;;;;;;;;;;;;;;26.72;20.79;101624.47;4989934;28;20496;-82
2022/04/03 10:55:58;;;;;;;3.08;2.53;;;;;;;25.96;21.84;101626.09;4975762;28;19925;-85
2022/04/03 10:58:24;;;;;;;4.35;2.72;;;;;;;25.01;22.61;101624.16;4989281;28;20031;-86
2022/04/03 11:00:51;;;;;;;3.17;2.30;;;;;;;23.53;23.58;101627.31;4990722;28;20041;-85
2022/04/03 11:03:17;;;;;;;5.28;2.30;;;;;;;23.26;23.64;101628.34;4979809;28;20114;-86
2022/04/03 11:05:46;;;;;;;4.07;2.33;;;;;;;24.22;23.48;101627.25;4985548;28;20106;-85
2022/04/03 11:08:11;;;;;;;3.60;2.60;;;;;;;24.41;22.87;101611.84;4984010;28;20026;-86
2022/04/03 11:10:56;;;;;;;3.88;2.38;;;;;;;24.67;23.68;101611.75;4984975;28;20072;-85
2022/04/03 11:13:37;;;;;;;4.35;2.55;;;;;;;25.16;22.40;101610.84;4986432;28;20057;-85
2022/04/03 11:16:07;;;;;;;3.58;2.05;;;;;;;24.89;22.27;101603.00;4983194;28;20093;-86
2022/04/03 11:18:52;;;;;;;2.15;1.52;;;;;;;24.47;22.33;101603.16;4982394;28;20030;-85
2022/04/03 11:21:21;;;;;;;4.18;2.50;;;;;;;23.14;22.64;101600.09;4974147;28;20425;-85
2022/04/03 11:23:52;;;;;;;2.58;2.00;;;;;;;22.63;24.06;101593.66;4977027;28;20045;-86
2022/04/03 11:26:20;;;;;;;1.73;1.30;;;;;;;21.84;23.60;101587.16;4974873;28;20038;-86
2022/04/03 11:28:46;;;;;;;2.15;1.38;;;;;;;22.34;24.03;101589.41;4982584;28;20125;-85
2022/04/03 11:31:12;;;;;;;1.15;1.00;;;;;;;22.82;23.65;101593.50;4983400;28;20037;-85